Weather at Miri Airport

Public forecast

Using degrees Celsius for public forecast. Weather courtesy of forecast.io.

Current aviation weather report (METAR) for Miri Airport

2024/02/25 11:00 (retrieved 1 hour ago)

WBGR 251100Z 04006KT 9999 SCT016 28/24 Q1010

Aviation forecast (TAF) for Miri Airport

2024/02/25 12:00 (retrieved 3 minutes ago)

TAF WBGR 251100Z 2512/2612 VRB02KT 9999 FEW016 TEMPO 2512/2516 6000 RA SCT016